Time;durP1;ratioP1;P1;durP2;ratioP2;P2;SDS_P1;SDS_P2;PMS_P1;PMS_P2;Temp;Humidity;BMP_temperature;BMP_pressure;BME280_temperature;BME280_humidity;BME280_pressure;Samples;Min_cycle;Max_cycle;Signal;HPM_P1;HPM_P2
2020/12/16 00:02:01;;;;;;;54.83;25.27;;;;;;;5.48;71.30;94572.16;5009732;28;20107;-71
2020/12/16 00:04:26;;;;;;;56.50;25.95;;;;;;;5.51;71.24;94572.38;5010890;28;20128;-71
2020/12/16 00:06:52;;;;;;;67.97;28.95;;;;;;;5.50;71.23;94580.63;5011337;28;20034;-71
2020/12/16 00:09:17;;;;;;;59.60;27.10;;;;;;;5.49;71.44;94563.94;5010317;28;20037;-71
2020/12/16 00:11:43;;;;;;;53.05;23.90;;;;;;;5.51;71.43;94568.97;5008931;28;20034;-71
2020/12/16 00:14:08;;;;;;;56.15;24.02;;;;;;;5.49;71.28;94576.38;5009810;28;20386;-71
2020/12/16 00:16:34;;;;;;;56.22;25.40;;;;;;;5.48;71.29;94572.94;5010778;28;20171;-72
2020/12/16 00:19:00;;;;;;;59.03;25.08;;;;;;;5.45;71.18;94575.31;5009741;28;20105;-72
2020/12/16 00:21:26;;;;;;;54.13;24.13;;;;;;;5.41;71.37;94573.19;5009713;28;20026;-72
2020/12/16 00:23:51;;;;;;;49.80;22.80;;;;;;;5.42;71.21;94566.84;5010920;28;20029;-71
2020/12/16 00:26:17;;;;;;;54.53;23.02;;;;;;;5.42;71.23;94571.34;5009804;28;20030;-71
2020/12/16 00:28:43;;;;;;;54.90;21.30;;;;;;;5.33;70.93;94573.72;5009427;28;20112;-71
2020/12/16 00:31:11;;;;;;;54.40;22.23;;;;;;;5.18;71.19;94573.69;5010704;28;20165;-71
2020/12/16 00:33:37;;;;;;;41.45;19.25;;;;;;;5.05;71.48;94564.41;5008303;28;20022;-71
2020/12/16 00:36:03;;;;;;;49.20;21.35;;;;;;;4.94;71.94;94574.13;5010563;28;20553;-71
2020/12/16 00:38:28;;;;;;;45.25;20.95;;;;;;;4.88;72.82;94572.53;5009427;28;20105;-71
2020/12/16 00:40:53;;;;;;;52.08;22.35;;;;;;;4.85;72.89;94570.41;5009150;28;20021;-71
2020/12/16 00:43:19;;;;;;;48.47;22.15;;;;;;;4.83;73.13;94568.03;5008976;28;20046;-71
2020/12/16 00:45:44;;;;;;;46.58;21.73;;;;;;;4.85;73.15;94565.13;5009065;28;20049;-70
2020/12/16 00:48:10;;;;;;;48.22;21.17;;;;;;;4.87;72.92;94562.25;5010073;28;20026;-70
2020/12/16 00:50:35;;;;;;;53.05;23.25;;;;;;;4.91;73.22;94561.47;5009232;28;20531;-71
2020/12/16 00:53:01;;;;;;;58.75;24.50;;;;;;;4.92;72.97;94557.75;5010761;28;20037;-71
2020/12/16 00:55:26;;;;;;;61.22;25.20;;;;;;;4.96;73.09;94556.16;5010251;28;20489;-70
2020/12/16 00:57:51;;;;;;;59.78;23.75;;;;;;;4.96;73.56;94548.25;5008957;28;20014;-70
2020/12/16 01:00:17;;;;;;;59.85;26.23;;;;;;;4.97;73.29;94560.41;5008572;28;20053;-70
2020/12/16 01:02:44;;;;;;;58.38;23.95;;;;;;;4.99;73.65;94553.03;5009943;28;20601;-70
2020/12/16 01:05:12;;;;;;;55.47;23.20;;;;;;;4.99;73.39;94555.66;5010255;28;20100;-70
2020/12/16 01:07:41;;;;;;;55.10;23.48;;;;;;;5.05;73.28;94559.13;5009974;28;20477;-70
2020/12/16 01:10:12;;;;;;;51.55;22.08;;;;;;;5.09;73.03;94554.09;5008650;28;20744;-70
2020/12/16 01:12:42;;;;;;;51.70;23.20;;;;;;;5.10;73.05;94556.47;5009824;28;20025;-72
2020/12/16 01:15:12;;;;;;;58.95;23.13;;;;;;;5.08;72.82;94550.66;5010236;28;20560;-70
2020/12/16 01:17:42;;;;;;;54.75;22.23;;;;;;;5.12;72.63;94553.59;5006323;28;20026;-70
2020/12/16 01:20:09;;;;;;;48.90;21.33;;;;;;;5.11;72.84;94551.97;5008793;28;20215;-70
2020/12/16 01:22:43;;;;;;;51.38;22.33;;;;;;;5.11;72.59;94555.44;5008636;28;20030;-70
2020/12/16 01:25:09;;;;;;;52.78;22.20;;;;;;;5.09;72.65;94559.38;5009556;28;20496;-70
2020/12/16 01:27:35;;;;;;;44.33;19.30;;;;;;;5.07;72.22;94545.63;5009841;28;20393;-70
2020/12/16 01:30:01;;;;;;;40.70;18.77;;;;;;;5.06;72.29;94551.97;5009931;28;20026;-70
2020/12/16 01:32:27;;;;;;;40.03;17.35;;;;;;;5.08;72.23;94537.44;5009656;28;20033;-70
2020/12/16 01:34:53;;;;;;;45.25;17.88;;;;;;;5.15;71.50;94547.75;5009731;28;20030;-72
2020/12/16 01:37:19;;;;;;;47.70;19.48;;;;;;;5.18;71.68;94545.38;5009933;28;20029;-72
2020/12/16 01:39:45;;;;;;;45.45;17.33;;;;;;;5.20;71.62;94542.50;5009783;28;20489;-72
2020/12/16 01:42:13;;;;;;;58.30;20.05;;;;;;;5.22;71.41;94549.09;5009700;28;20049;-72
2020/12/16 01:44:39;;;;;;;55.45;18.20;;;;;;;5.20;71.23;94540.63;5008392;28;20116;-72
2020/12/16 01:47:04;;;;;;;43.17;19.00;;;;;;;5.13;71.35;94555.97;5009673;28;20483;-72
2020/12/16 01:49:30;;;;;;;44.33;17.23;;;;;;;5.17;71.52;94549.09;5008409;28;20028;-72
2020/12/16 01:52:02;;;;;;;49.00;17.17;;;;;;;5.16;71.64;94555.44;5009824;28;20484;-72
2020/12/16 01:54:29;;;;;;;46.60;15.25;;;;;;;5.14;71.50;94544.31;5009763;28;20036;-72
2020/12/16 01:56:57;;;;;;;42.65;16.15;;;;;;;5.13;71.01;94550.69;5008256;28;20033;-72
2020/12/16 01:59:23;;;;;;;36.35;15.75;;;;;;;5.03;71.23;94543.53;5009181;28;20034;-71
2020/12/16 02:01:55;;;;;;;55.70;14.15;;;;;;;4.94;71.17;94546.94;5008503;28;20030;-71
2020/12/16 02:04:24;;;;;;;40.53;15.07;;;;;;;4.81;71.10;94549.00;5009557;28;20030;-71
2020/12/16 02:06:51;;;;;;;32.20;13.60;;;;;;;4.69;71.68;94545.81;5008051;28;20034;-71
2020/12/16 02:09:19;;;;;;;34.15;14.65;;;;;;;4.62;72.28;94548.69;5009563;28;20400;-71
2020/12/16 02:11:45;;;;;;;39.90;14.77;;;;;;;4.60;72.15;94552.66;5008023;28;20041;-71
2020/12/16 02:14:10;;;;;;;34.90;14.85;;;;;;;4.56;72.41;94549.72;5009525;28;20033;-71
2020/12/16 02:16:37;;;;;;;31.75;13.57;;;;;;;4.54;72.42;94546.53;5008953;28;20030;-71
2020/12/16 02:19:05;;;;;;;34.20;14.30;;;;;;;4.55;72.60;94545.47;5008262;28;20120;-70
2020/12/16 02:21:31;;;;;;;34.97;15.05;;;;;;;4.58;72.53;94547.63;5009434;28;20026;-71
2020/12/16 02:24:12;;;;;;;40.25;14.88;;;;;;;4.58;72.66;94549.44;5007538;28;20159;-71
2020/12/16 02:26:39;;;;;;;30.13;14.13;;;;;;;4.55;72.67;94545.47;5006394;28;20426;-72
2020/12/16 02:29:07;;;;;;;38.13;13.60;;;;;;;4.58;72.55;94552.09;5007715;28;20272;-72
2020/12/16 02:31:35;;;;;;;32.88;12.85;;;;;;;4.54;72.70;94549.19;5009333;28;20022;-72
2020/12/16 02:34:00;;;;;;;31.38;13.40;;;;;;;4.54;72.74;94558.94;5005694;28;20500;-71
2020/12/16 02:36:26;;;;;;;32.75;12.63;;;;;;;4.54;72.51;94556.28;5011668;28;20017;-71
2020/12/16 02:38:52;;;;;;;27.48;12.07;;;;;;;4.56;72.24;94555.00;5012598;28;20037;-72
2020/12/16 02:41:18;;;;;;;30.77;12.90;;;;;;;4.54;72.28;94559.75;5011837;28;20026;-71
2020/12/16 02:43:44;;;;;;;26.02;10.85;;;;;;;4.53;72.03;94555.50;5011634;28;20033;-71
2020/12/16 02:46:10;;;;;;;28.63;11.25;;;;;;;4.50;71.94;94556.03;5011220;28;20095;-71
2020/12/16 02:48:35;;;;;;;25.80;11.05;;;;;;;4.52;71.84;94546.00;5011384;28;20440;-71
2020/12/16 02:51:01;;;;;;;21.85;9.57;;;;;;;4.54;71.50;94549.19;5011522;28;20034;-71
2020/12/16 02:53:26;;;;;;;27.75;11.15;;;;;;;4.57;71.73;94548.66;5010046;28;20130;-71
2020/12/16 02:55:52;;;;;;;22.02;10.00;;;;;;;4.53;72.02;94552.84;5012858;28;20409;-71
2020/12/16 02:58:17;;;;;;;24.10;9.65;;;;;;;4.53;71.54;94558.13;5012165;28;20038;-71
2020/12/16 03:00:43;;;;;;;22.08;10.45;;;;;;;4.54;71.71;94549.19;5011254;28;20053;-70
2020/12/16 03:03:08;;;;;;;22.55;10.60;;;;;;;4.53;71.47;94552.06;5012385;28;20029;-71
2020/12/16 03:05:34;;;;;;;24.88;10.30;;;;;;;4.50;71.68;94552.56;5012366;28;20399;-70
2020/12/16 03:07:59;;;;;;;27.40;10.68;;;;;;;4.51;71.59;94549.69;5009603;28;20055;-70
2020/12/16 03:10:24;;;;;;;36.72;12.00;;;;;;;4.52;71.66;94553.94;5010837;28;20116;-70
2020/12/16 03:12:50;;;;;;;26.10;11.52;;;;;;;4.49;71.75;94557.06;5012191;28;20042;-70
2020/12/16 03:15:15;;;;;;;26.83;11.57;;;;;;;4.43;71.91;94556.25;5012361;28;20037;-70
2020/12/16 03:17:41;;;;;;;26.42;11.07;;;;;;;4.42;72.11;94561.81;5012125;28;20494;-70
2020/12/16 03:20:06;;;;;;;27.58;10.95;;;;;;;4.44;72.04;94559.69;5012513;28;20390;-70
2020/12/16 03:22:32;;;;;;;25.20;11.07;;;;;;;4.43;71.85;94564.16;5011711;28;20091;-70
2020/12/16 03:24:57;;;;;;;28.15;11.73;;;;;;;4.44;71.61;94564.97;5012882;28;20117;-71
2020/12/16 03:27:23;;;;;;;22.90;10.50;;;;;;;4.43;71.34;94566.00;5012408;28;20038;-71
2020/12/16 03:29:48;;;;;;;31.92;10.75;;;;;;;4.40;71.24;94558.63;5011660;28;20037;-70
2020/12/16 03:32:14;;;;;;;36.58;10.85;;;;;;;4.29;71.28;94572.81;5010721;28;20036;-70
2020/12/16 03:34:39;;;;;;;60.85;10.73;;;;;;;4.12;72.15;94568.50;5007780;28;20030;-70
2020/12/16 03:37:04;;;;;;;45.75;10.82;;;;;;;3.92;73.33;94563.09;5011849;28;20033;-70
2020/12/16 03:39:30;;;;;;;30.75;10.00;;;;;;;3.80;74.06;94565.91;5010602;28;20499;-70
2020/12/16 03:41:56;;;;;;;27.67;10.50;;;;;;;3.75;74.96;94569.31;5011656;28;20096;-70
2020/12/16 03:44:22;;;;;;;25.67;10.68;;;;;;;3.76;74.72;94555.06;5011836;28;20033;-70
2020/12/16 03:46:51;;;;;;;47.53;11.50;;;;;;;3.79;74.15;94570.38;5011072;28;20105;-70
2020/12/16 03:49:17;;;;;;;47.28;10.98;;;;;;;3.71;74.17;94565.56;5011281;28;20034;-70
2020/12/16 03:51:45;;;;;;;70.88;10.43;;;;;;;3.67;74.46;94575.03;5011569;28;20084;-70
2020/12/16 03:54:10;;;;;;;28.92;8.93;;;;;;;3.62;74.41;94569.72;5011413;28;20454;-71
2020/12/16 03:56:36;;;;;;;22.35;8.60;;;;;;;3.67;74.57;94572.41;5011441;28;20168;-71
2020/12/16 03:59:01;;;;;;;31.52;9.57;;;;;;;3.62;74.57;94580.25;5010054;28;20101;-71
2020/12/16 04:01:27;;;;;;;38.00;10.20;;;;;;;3.55;75.40;94584.97;5011355;28;20033;-70
2020/12/16 04:03:52;;;;;;;59.25;11.55;;;;;;;3.48;75.57;94582.53;5011496;28;20036;-70
2020/12/16 04:06:18;;;;;;;42.13;11.15;;;;;;;3.52;75.84;94577.53;5009958;28;20074;-70
2020/12/16 04:08:44;;;;;;;32.88;10.43;;;;;;;3.55;75.66;94582.31;5011531;28;20041;-70
2020/12/16 04:11:12;;;;;;;36.78;11.57;;;;;;;3.54;75.64;94584.16;5010117;28;20153;-70
2020/12/16 04:13:39;;;;;;;33.55;11.80;;;;;;;3.55;75.98;94582.31;5009158;28;20047;-70
2020/12/16 04:16:06;;;;;;;37.58;12.23;;;;;;;3.52;75.73;94586.25;5011411;28;20088;-70
2020/12/16 04:18:31;;;;;;;35.03;11.63;;;;;;;3.51;76.03;94589.13;5011095;28;20084;-70
2020/12/16 04:20:57;;;;;;;32.03;10.95;;;;;;;3.53;76.05;94587.84;5009989;28;20030;-70
2020/12/16 04:23:22;;;;;;;29.00;10.80;;;;;;;3.57;75.98;94588.13;5011356;28;20022;-71
2020/12/16 04:25:48;;;;;;;30.25;10.40;;;;;;;3.61;76.05;94589.22;5009458;28;20401;-70
2020/12/16 04:28:13;;;;;;;25.80;10.13;;;;;;;3.68;75.07;94589.78;5011063;28;20084;-71
2020/12/16 04:30:39;;;;;;;27.13;10.05;;;;;;;3.74;75.20;94595.91;5009249;28;20033;-71
2020/12/16 04:33:04;;;;;;;28.13;11.15;;;;;;;3.77;74.75;94593.56;5010979;28;20026;-69
2020/12/16 04:35:30;;;;;;;31.85;9.93;;;;;;;3.82;74.17;94598.88;5011034;28;20021;-69
2020/12/16 04:37:56;;;;;;;27.65;10.05;;;;;;;3.87;74.26;94603.41;5009102;28;20040;-69
2020/12/16 04:40:23;;;;;;;30.67;12.80;;;;;;;3.89;73.98;94603.13;5010920;28;20037;-69
2020/12/16 04:43:09;;;;;;;24.58;11.15;;;;;;;3.92;74.09;94613.19;5009000;28;20038;-69
2020/12/16 04:45:38;;;;;;;22.75;9.55;;;;;;;3.93;74.26;94612.13;5010566;28;20547;-69
2020/12/16 04:48:06;;;;;;;24.35;9.38;;;;;;;4.00;73.48;94607.44;5010628;28;20025;-69
2020/12/16 04:50:31;;;;;;;21.63;8.90;;;;;;;4.03;73.30;94612.25;5010301;28;20033;-71
2020/12/16 04:53:02;;;;;;;19.52;12.18;;;;;;;4.06;73.18;94614.34;5010292;28;20030;-71
2020/12/16 04:55:28;;;;;;;22.73;12.27;;;;;;;4.06;73.04;94616.22;5010096;28;20032;-71
2020/12/16 04:57:54;;;;;;;17.05;8.60;;;;;;;4.09;72.40;94620.97;5009768;28;20064;-71
2020/12/16 05:00:23;;;;;;;16.58;6.70;;;;;;;4.18;72.10;94620.25;5010134;28;20135;-71
2020/12/16 05:02:57;;;;;;;13.13;5.90;;;;;;;4.26;71.31;94628.75;5008975;28;20024;-71
2020/12/16 05:05:24;;;;;;;14.63;6.50;;;;;;;4.30;71.20;94629.81;5008115;28;20087;-71
2020/12/16 05:07:50;;;;;;;16.25;6.60;;;;;;;4.23;71.49;94632.66;5008966;28;20067;-71
2020/12/16 05:10:29;;;;;;;13.57;7.13;;;;;;;4.24;71.44;94633.47;5010188;28;20028;-70
2020/12/16 05:13:10;;;;;;;14.95;6.38;;;;;;;4.24;71.28;94633.47;5006692;28;20064;-70
2020/12/16 05:15:37;;;;;;;13.85;6.40;;;;;;;4.29;71.05;94631.66;5006139;28;20036;-72
2020/12/16 05:18:19;;;;;;;14.30;6.28;;;;;;;4.24;70.33;94636.13;5008859;28;20034;-71
2020/12/16 05:20:48;;;;;;;13.07;5.90;;;;;;;4.14;71.38;94642.91;5008956;28;20037;-70
2020/12/16 05:23:15;;;;;;;15.82;6.40;;;;;;;4.13;71.63;94643.16;5010013;28;20296;-71
2020/12/16 05:25:56;;;;;;;14.20;5.65;;;;;;;4.05;71.21;94641.78;5008433;28;20112;-70
2020/12/16 05:28:29;;;;;;;12.98;5.97;;;;;;;3.92;71.70;94658.81;5009809;28;20024;-71
2020/12/16 05:30:56;;;;;;;10.38;4.63;;;;;;;3.73;72.12;94647.84;5008848;28;20028;-69
2020/12/16 05:33:22;;;;;;;11.77;5.65;;;;;;;3.60;72.66;94656.16;5006675;28;20045;-70
2020/12/16 05:35:53;;;;;;;11.77;5.07;;;;;;;3.44;73.14;94654.41;5008528;28;20021;-69
2020/12/16 05:38:20;;;;;;;13.30;5.07;;;;;;;3.36;73.47;94655.69;5009912;28;20065;-69
2020/12/16 05:40:45;;;;;;;13.15;5.28;;;;;;;3.29;74.00;94661.13;5009587;28;20605;-69
2020/12/16 05:43:22;;;;;;;10.82;4.95;;;;;;;3.29;74.50;94663.75;5005763;28;20156;-69
2020/12/16 05:45:48;;;;;;;9.23;4.95;;;;;;;3.28;74.50;94667.47;5008305;28;20041;-69
2020/12/16 05:48:13;;;;;;;12.00;5.75;;;;;;;3.17;74.42;94671.78;5008340;28;20040;-70
2020/12/16 05:50:55;;;;;;;10.95;5.18;;;;;;;3.04;75.13;94660.88;5008392;28;20099;-71
2020/12/16 05:53:24;;;;;;;11.45;5.53;;;;;;;2.97;75.57;94661.84;5006874;28;20025;-70
2020/12/16 05:55:52;;;;;;;12.18;5.15;;;;;;;2.94;75.66;94664.16;5009339;28;20022;-71
2020/12/16 05:58:19;;;;;;;11.10;5.13;;;;;;;2.92;76.26;94668.88;5008348;28;20481;-70
2020/12/16 06:00:55;;;;;;;11.18;5.03;;;;;;;2.97;76.13;94667.13;5009787;28;20026;-71
2020/12/16 06:03:30;;;;;;;13.45;5.55;;;;;;;2.98;75.60;94675.81;5008327;28;20121;-71
2020/12/16 06:06:03;;;;;;;10.02;5.32;;;;;;;3.00;75.40;94668.44;5008217;28;20025;-71
2020/12/16 06:08:33;;;;;;;12.10;5.65;;;;;;;3.03;75.87;94681.13;5009339;28;20113;-71
2020/12/16 06:11:00;;;;;;;15.63;6.50;;;;;;;3.11;75.96;94680.69;5008518;28;20105;-72
2020/12/16 06:13:25;;;;;;;18.50;8.57;;;;;;;3.18;75.81;94683.94;5011924;28;20045;-71
2020/12/16 06:15:53;;;;;;;19.05;8.85;;;;;;;3.25;75.54;94686.38;5013239;28;20026;-71
2020/12/16 06:18:22;;;;;;;18.52;7.57;;;;;;;3.34;75.30;94690.19;5011678;28;20100;-70
2020/12/16 06:20:48;;;;;;;14.85;5.65;;;;;;;3.47;74.64;94694.25;5013162;28;20473;-70
2020/12/16 06:23:36;;;;;;;11.57;5.28;;;;;;;3.62;73.98;94688.34;5011677;28;20113;-71
2020/12/16 06:26:04;;;;;;;10.13;5.10;;;;;;;3.70;73.69;94702.94;5013377;28;20523;-70
2020/12/16 06:28:29;;;;;;;11.93;5.05;;;;;;;3.77;73.26;94693.00;5011827;28;20496;-70
2020/12/16 06:31:08;;;;;;;11.60;6.63;;;;;;;3.82;73.18;94700.94;5012929;28;20033;-69
2020/12/16 06:33:57;;;;;;;12.20;6.32;;;;;;;3.92;72.87;94705.50;5012999;28;20477;-70
2020/12/16 06:36:34;;;;;;;16.90;7.63;;;;;;;3.97;72.58;94702.94;5013032;28;20029;-69
2020/12/16 06:39:00;;;;;;;13.35;6.32;;;;;;;3.99;71.48;94701.63;5009155;28;20054;-71
2020/12/16 06:41:35;;;;;;;13.07;5.97;;;;;;;4.04;71.37;94700.88;5012746;28;20113;-70
2020/12/16 06:44:10;;;;;;;15.32;6.10;;;;;;;4.06;71.49;94696.13;5013017;28;20034;-71
2020/12/16 06:46:39;;;;;;;14.50;7.40;;;;;;;4.12;71.39;94703.03;5011315;28;20032;-71
2020/12/16 06:49:24;;;;;;;12.82;6.53;;;;;;;4.18;70.94;94699.41;5011489;28;20041;-70
2020/12/16 06:51:55;;;;;;;15.18;7.40;;;;;;;4.14;70.23;94705.44;5012786;28;20022;-70
2020/12/16 06:54:23;;;;;;;16.30;6.88;;;;;;;4.01;71.25;94693.47;5012305;28;20512;-70
2020/12/16 06:57:12;;;;;;;13.05;6.70;;;;;;;3.97;71.69;94701.09;5011081;28;20137;-72
2020/12/16 06:59:46;;;;;;;19.70;7.80;;;;;;;3.98;71.98;94700.03;5012687;28;20057;-71
2020/12/16 07:02:15;;;;;;;16.75;7.68;;;;;;;4.02;71.99;94702.97;5008181;28;20041;-72
2020/12/16 07:04:41;;;;;;;15.70;7.63;;;;;;;4.02;72.52;94705.59;5011368;28;20033;-71
2020/12/16 07:07:06;;;;;;;14.13;7.85;;;;;;;3.98;72.35;94707.16;5009769;28;20037;-69
2020/12/16 07:09:33;;;;;;;17.13;7.57;;;;;;;4.01;72.05;94704.81;5012099;28;20030;-70
2020/12/16 07:11:59;;;;;;;13.70;6.85;;;;;;;4.00;71.93;94715.59;5011953;28;20422;-69
2020/12/16 07:14:34;;;;;;;14.82;7.07;;;;;;;3.97;71.76;94714.28;5011820;28;20058;-71
2020/12/16 07:17:06;;;;;;;15.45;6.70;;;;;;;3.92;72.13;94716.06;5010639;28;20101;-70
2020/12/16 07:19:32;;;;;;;19.50;7.47;;;;;;;3.96;72.16;94707.38;5010537;28;20034;-72
2020/12/16 07:22:15;;;;;;;18.05;7.22;;;;;;;4.05;72.56;94701.66;5011706;28;20052;-69
2020/12/16 07:24:45;;;;;;;;;;;;;;;4.11;72.60;94701.47;5011893;28;20030;-70
2020/12/16 07:27:16;;;;;;;24.23;10.95;;;;;;;4.17;72.26;94703.09;5011748;28;20374;-74
2020/12/16 07:29:56;;;;;;;19.35;9.18;;;;;;;4.26;71.96;94690.22;5011625;28;20040;-72
2020/12/16 07:32:22;;;;;;;18.02;9.10;;;;;;;4.32;71.68;94707.69;5009922;28;20065;-73
2020/12/16 07:34:59;;;;;;;21.40;8.27;;;;;;;4.38;71.50;94709.31;5011128;28;20136;-68
2020/12/16 07:37:25;;;;;;;17.50;8.90;;;;;;;4.48;71.11;94711.25;5011779;28;20030;-68
2020/12/16 07:39:51;;;;;;;20.02;9.52;;;;;;;4.54;70.77;94714.69;5010909;28;20037;-68
2020/12/16 07:42:22;;;;;;;18.25;8.65;;;;;;;4.56;70.67;94704.69;5011588;28;20053;-68
2020/12/16 07:44:47;;;;;;;14.95;6.93;;;;;;;4.56;70.96;94705.50;5008458;28;20461;-68
2020/12/16 07:47:15;;;;;;;13.57;6.85;;;;;;;4.62;70.80;94709.75;5009810;28;20034;-68
2020/12/16 07:49:40;;;;;;;18.27;6.90;;;;;;;4.63;70.97;94708.69;5011206;28;20053;-68
2020/12/16 07:52:06;;;;;;;17.75;7.80;;;;;;;4.70;70.91;94707.66;5010949;28;20382;-68
2020/12/16 07:54:32;;;;;;;16.58;8.60;;;;;;;4.72;70.50;94714.31;5010839;28;20030;-69
2020/12/16 07:56:57;;;;;;;12.80;7.50;;;;;;;4.78;70.23;94723.03;5009539;28;20030;-68
2020/12/16 07:59:29;;;;;;;14.48;7.78;;;;;;;4.79;69.35;94724.66;5010762;28;20036;-68
2020/12/16 08:02:09;;;;;;;14.48;7.88;;;;;;;4.72;69.31;94718.78;5011140;28;20034;-75
2020/12/16 08:04:36;;;;;;;15.32;7.80;;;;;;;4.58;69.05;94713.94;5010901;28;20405;-75
2020/12/16 08:07:20;;;;;;;18.77;8.45;;;;;;;4.44;69.71;94723.34;5010984;28;20401;-69
2020/12/16 08:09:57;;;;;;;17.90;7.47;;;;;;;4.35;70.63;94727.50;5009753;28;20064;-68
2020/12/16 08:12:25;;;;;;;26.35;7.50;;;;;;;4.29;71.07;94726.66;5011175;28;20038;-68
2020/12/16 08:15:06;;;;;;;19.42;9.00;;;;;;;4.26;71.66;94726.38;5010959;28;20018;-68
2020/12/16 08:17:36;;;;;;;16.23;7.70;;;;;;;4.22;71.36;94729.50;5011187;28;20021;-68
2020/12/16 08:20:17;;;;;;;22.17;8.27;;;;;;;4.19;71.75;94729.22;5011313;28;20018;-69
2020/12/16 08:22:44;;;;;;;18.08;8.82;;;;;;;4.18;72.32;94728.44;5009450;28;20021;-68
2020/12/16 08:25:11;;;;;;;17.77;8.93;;;;;;;4.12;72.44;94731.28;5010627;28;20025;-69
2020/12/16 08:27:44;;;;;;;16.90;8.23;;;;;;;4.14;72.53;94735.25;5008158;28;20338;-73
2020/12/16 08:30:12;;;;;;;20.83;7.32;;;;;;;4.20;72.52;94736.88;5010740;28;20080;-73
2020/12/16 08:33:01;;;;;;;16.85;9.40;;;;;;;4.31;72.29;94734.34;5009846;28;20486;-73
2020/12/16 08:35:52;;;;;;;22.42;9.98;;;;;;;4.35;72.01;94730.13;5006908;28;20424;-74
2020/12/16 08:38:27;;;;;;;27.55;11.70;;;;;;;4.48;72.14;94724.44;5010078;28;20044;-73
2020/12/16 08:40:53;;;;;;;20.38;9.73;;;;;;;4.60;71.61;94724.28;5009058;28;20025;-74
2020/12/16 08:43:31;;;;;;;17.55;8.73;;;;;;;4.71;71.34;94728.56;5008823;28;20053;-73
2020/12/16 08:46:06;;;;;;;22.08;11.75;;;;;;;4.78;71.13;94728.31;5010127;28;20030;-73
2020/12/16 08:49:00;;;;;;;19.23;10.73;;;;;;;4.86;70.67;94724.41;5009214;28;20025;-74
2020/12/16 08:51:34;;;;;;;25.88;11.18;;;;;;;4.89;70.43;94719.41;5009200;28;20045;-74
2020/12/16 08:54:01;;;;;;;20.50;10.20;;;;;;;4.95;70.25;94723.69;5011134;28;20022;-74
2020/12/16 08:56:33;;;;;;;17.63;9.65;;;;;;;4.98;69.97;94717.09;5010930;28;20401;-69
2020/12/16 08:59:23;;;;;;;17.40;9.57;;;;;;;5.05;69.97;94716.84;5009687;28;20051;-68
2020/12/16 09:01:51;;;;;;;22.73;9.98;;;;;;;5.13;69.69;94719.81;5010388;28;20248;-68
2020/12/16 09:04:35;;;;;;;20.23;10.13;;;;;;;5.13;69.49;94708.41;5009885;28;20108;-69
2020/12/16 09:07:10;;;;;;;27.65;10.55;;;;;;;5.16;69.25;94714.00;5008650;28;20030;-67
2020/12/16 09:09:38;;;;;;;19.10;10.70;;;;;;;5.14;69.23;94710.81;5008690;28;20508;-68
2020/12/16 09:12:10;;;;;;;23.42;11.70;;;;;;;5.07;68.84;94704.16;5010104;28;20025;-68
2020/12/16 09:14:35;;;;;;;18.55;11.48;;;;;;;5.08;69.32;94711.06;5009825;28;20021;-69
2020/12/16 09:17:08;;;;;;;30.10;13.05;;;;;;;5.06;69.38;94702.59;5009787;28;20033;-68
2020/12/16 09:19:34;;;;;;;27.42;12.90;;;;;;;4.97;69.45;94713.66;5009304;28;20057;-68
2020/12/16 09:22:00;;;;;;;25.48;13.07;;;;;;;4.86;70.05;94708.56;5010228;28;20026;-68
2020/12/16 09:24:26;;;;;;;26.42;10.77;;;;;;;4.98;69.31;94698.59;5010065;28;20384;-68
2020/12/16 09:26:55;;;;;;;34.08;11.38;;;;;;;4.98;69.48;94693.31;5008095;28;20026;-69
2020/12/16 09:29:24;;;;;;;27.98;12.40;;;;;;;5.01;69.83;94690.16;5009907;28;20064;-68
2020/12/16 09:32:12;;;;;;;32.38;11.35;;;;;;;5.08;69.51;94682.00;5009469;28;20079;-68
2020/12/16 09:34:41;;;;;;;26.83;13.20;;;;;;;5.11;69.45;94686.75;5009066;28;20049;-68
2020/12/16 09:37:15;;;;;;;37.17;14.13;;;;;;;5.20;69.32;94687.84;5008279;28;20030;-69
2020/12/16 09:39:43;;;;;;;25.88;13.32;;;;;;;5.21;68.58;94689.44;5009641;28;20096;-68
2020/12/16 09:42:16;;;;;;;26.48;11.63;;;;;;;5.19;68.49;94678.31;5009493;28;20054;-67
2020/12/16 09:44:43;;;;;;;28.13;13.38;;;;;;;5.19;68.94;94676.50;5007929;28;20068;-68
2020/12/16 09:47:25;;;;;;;35.83;13.15;;;;;;;5.22;69.28;94683.91;5009132;28;20489;-69
2020/12/16 09:50:00;;;;;;;21.13;10.55;;;;;;;5.28;68.79;94678.63;5007940;28;20026;-68
2020/12/16 09:52:27;;;;;;;26.67;11.75;;;;;;;5.30;69.13;94677.31;5007650;28;20108;-69
2020/12/16 09:54:53;;;;;;;27.58;12.40;;;;;;;5.32;69.06;94683.13;5008195;28;20036;-68
2020/12/16 09:57:20;;;;;;;28.42;14.25;;;;;;;5.40;69.04;94685.28;5009282;28;20026;-70
2020/12/16 09:59:49;;;;;;;29.05;14.60;;;;;;;5.45;68.44;94681.84;5008141;28;20029;-70
2020/12/16 10:02:17;;;;;;;27.17;14.60;;;;;;;5.35;68.38;94674.72;5009139;28;20380;-70
2020/12/16 10:04:42;;;;;;;26.13;13.95;;;;;;;5.40;68.39;94677.34;5008165;28;20038;-70
2020/12/16 10:07:08;;;;;;;33.00;15.23;;;;;;;5.36;67.84;94671.00;5007858;28;20032;-69
2020/12/16 10:09:35;;;;;;;26.73;14.27;;;;;;;5.35;68.01;94669.41;5007894;28;20038;-68
2020/12/16 10:12:04;;;;;;;40.10;16.60;;;;;;;5.30;68.16;94669.38;5007993;28;20037;-68
2020/12/16 10:14:30;;;;;;;34.60;17.08;;;;;;;5.23;67.72;94674.09;5007905;28;20386;-68
2020/12/16 10:16:56;;;;;;;27.17;15.15;;;;;;;5.08;68.94;94671.41;5008478;28;20117;-73
2020/12/16 10:19:22;;;;;;;33.45;15.48;;;;;;;4.95;69.34;94670.06;5010207;28;20080;-74
2020/12/16 10:21:49;;;;;;;32.88;16.08;;;;;;;4.83;69.66;94662.34;5008478;28;20481;-73
2020/12/16 10:24:16;;;;;;;36.05;16.98;;;;;;;4.81;70.14;94667.88;5005828;28;20192;-74
2020/12/16 10:26:46;;;;;;;40.35;17.25;;;;;;;4.71;70.59;94662.53;5009627;28;20022;-75
2020/12/16 10:29:11;;;;;;;36.47;18.55;;;;;;;4.74;70.63;94658.56;5008241;28;20026;-76
2020/12/16 10:31:36;;;;;;;33.03;17.05;;;;;;;4.71;71.07;94664.38;5013834;28;20029;-76
2020/12/16 10:34:02;;;;;;;33.72;17.38;;;;;;;4.70;70.86;94657.50;5010189;28;20026;-74
2020/12/16 10:36:29;;;;;;;39.72;18.95;;;;;;;4.75;70.85;94655.69;5009675;28;20084;-76
2020/12/16 10:38:55;;;;;;;36.28;18.35;;;;;;;4.77;70.39;94658.06;5009488;28;20030;-74
2020/12/16 10:41:21;;;;;;;27.88;15.95;;;;;;;4.79;70.66;94661.25;5009515;28;20099;-74
2020/12/16 10:43:46;;;;;;;33.53;17.95;;;;;;;4.81;70.91;94649.38;5008113;28;20504;-74
2020/12/16 10:46:11;;;;;;;38.03;19.63;;;;;;;4.88;71.05;94643.84;5009350;28;20475;-73
2020/12/16 10:48:37;;;;;;;47.08;19.75;;;;;;;4.94;70.78;94645.47;5009368;28;20516;-74
2020/12/16 10:51:03;;;;;;;35.33;17.83;;;;;;;4.97;70.15;94650.25;5009445;28;20445;-73
2020/12/16 10:53:28;;;;;;;40.35;18.83;;;;;;;5.03;69.87;94633.34;5009375;28;20056;-74
2020/12/16 10:55:55;;;;;;;31.02;18.08;;;;;;;5.15;69.86;94642.91;5009312;28;20018;-76
2020/12/16 10:58:21;;;;;;;41.50;19.42;;;;;;;5.16;69.50;94637.34;5012543;28;20398;-73
2020/12/16 11:00:47;;;;;;;34.50;18.42;;;;;;;5.15;69.60;94637.59;5011566;28;20076;-75
2020/12/16 11:03:12;;;;;;;37.97;19.10;;;;;;;5.26;69.50;94638.47;5012212;28;20046;-69
2020/12/16 11:05:38;;;;;;;42.28;19.33;;;;;;;5.33;68.73;94628.41;5012034;28;20026;-68
2020/12/16 11:08:03;;;;;;;37.83;19.20;;;;;;;5.37;68.36;94626.84;5011017;28;20100;-68
2020/12/16 11:10:29;;;;;;;46.22;20.90;;;;;;;5.13;69.31;94634.44;5012276;28;20088;-68
2020/12/16 11:12:54;;;;;;;38.53;19.63;;;;;;;5.13;69.49;94629.97;5012070;28;20029;-69
2020/12/16 11:15:20;;;;;;;39.85;19.42;;;;;;;5.15;69.68;94637.59;5011806;28;20509;-69
2020/12/16 11:17:45;;;;;;;44.90;23.45;;;;;;;5.16;69.75;94633.94;5010509;28;20135;-68
2020/12/16 11:20:11;;;;;;;39.55;20.90;;;;;;;5.20;69.54;94627.06;5011586;28;20030;-68
2020/12/16 11:22:37;;;;;;;43.03;20.25;;;;;;;5.17;69.68;94630.22;5011614;28;20025;-68
2020/12/16 11:25:04;;;;;;;42.13;21.98;;;;;;;5.07;70.21;94624.91;5011567;28;20034;-69
2020/12/16 11:27:30;;;;;;;49.40;22.40;;;;;;;5.10;70.21;94629.69;5011645;28;20026;-70
2020/12/16 11:29:55;;;;;;;38.28;20.73;;;;;;;5.17;69.96;94624.94;5011743;28;20080;-69
2020/12/16 11:32:21;;;;;;;51.05;21.95;;;;;;;5.19;69.61;94625.47;5011453;28;20050;-70
2020/12/16 11:34:46;;;;;;;50.33;22.20;;;;;;;5.16;69.71;94621.50;5011864;28;20101;-70
2020/12/16 11:37:14;;;;;;;48.38;21.98;;;;;;;5.06;69.83;94618.03;5011596;28;20194;-70